sensor_id;sensor_type;location;lat;lon;timestamp;temperature;humidity
10538;DHT22;5317;49.048;8.468;2023-07-31T00:01:19;22.90;62.60
10538;DHT22;5317;49.048;8.468;2023-07-31T00:03:46;22.80;62.70
10538;DHT22;5317;49.048;8.468;2023-07-31T00:06:13;22.80;62.90
10538;DHT22;5317;49.048;8.468;2023-07-31T00:08:40;22.70;62.90
10538;DHT22;5317;49.048;8.468;2023-07-31T00:11:06;22.70;63.30
10538;DHT22;5317;49.048;8.468;2023-07-31T00:13:35;22.70;64.10
10538;DHT22;5317;49.048;8.468;2023-07-31T00:16:02;22.70;63.60
10538;DHT22;5317;49.048;8.468;2023-07-31T00:18:28;22.70;63.70
10538;DHT22;5317;49.048;8.468;2023-07-31T00:20:55;22.70;63.70
10538;DHT22;5317;49.048;8.468;2023-07-31T00:23:22;22.60;63.70
10538;DHT22;5317;49.048;8.468;2023-07-31T00:25:49;22.60;63.90
10538;DHT22;5317;49.048;8.468;2023-07-31T00:28:16;22.60;64.20
10538;DHT22;5317;49.048;8.468;2023-07-31T00:30:44;22.50;64.60
10538;DHT22;5317;49.048;8.468;2023-07-31T00:33:11;22.50;64.50
10538;DHT22;5317;49.048;8.468;2023-07-31T00:35:37;22.40;64.60
10538;DHT22;5317;49.048;8.468;2023-07-31T00:38:04;22.40;64.70
10538;DHT22;5317;49.048;8.468;2023-07-31T00:40:34;22.40;64.70
10538;DHT22;5317;49.048;8.468;2023-07-31T00:43:02;22.30;64.60
10538;DHT22;5317;49.048;8.468;2023-07-31T00:45:29;22.30;64.60
10538;DHT22;5317;49.048;8.468;2023-07-31T00:47:58;22.30;64.80
10538;DHT22;5317;49.048;8.468;2023-07-31T00:50:25;22.30;65.00
10538;DHT22;5317;49.048;8.468;2023-07-31T00:52:53;22.30;64.80
10538;DHT22;5317;49.048;8.468;2023-07-31T00:55:20;22.20;64.70
10538;DHT22;5317;49.048;8.468;2023-07-31T00:57:48;22.30;64.60
10538;DHT22;5317;49.048;8.468;2023-07-31T01:00:15;22.30;64.60
10538;DHT22;5317;49.048;8.468;2023-07-31T01:02:42;22.20;64.50
10538;DHT22;5317;49.048;8.468;2023-07-31T01:05:10;22.20;64.50
10538;DHT22;5317;49.048;8.468;2023-07-31T01:07:44;22.20;65.20
10538;DHT22;5317;49.048;8.468;2023-07-31T01:10:18;22.20;64.50
10538;DHT22;5317;49.048;8.468;2023-07-31T01:12:48;22.20;64.50
10538;DHT22;5317;49.048;8.468;2023-07-31T01:15:14;22.20;64.30
10538;DHT22;5317;49.048;8.468;2023-07-31T01:17:43;22.20;64.20
10538;DHT22;5317;49.048;8.468;2023-07-31T01:20:13;22.20;65.10
10538;DHT22;5317;49.048;8.468;2023-07-31T01:22:59;22.20;64.40
10538;DHT22;5317;49.048;8.468;2023-07-31T01:25:56;22.20;64.50
10538;DHT22;5317;49.048;8.468;2023-07-31T01:28:32;22.10;64.40
10538;DHT22;5317;49.048;8.468;2023-07-31T01:31:00;22.10;64.40
10538;DHT22;5317;49.048;8.468;2023-07-31T01:33:29;22.20;64.40
10538;DHT22;5317;49.048;8.468;2023-07-31T01:35:57;22.20;64.10
10538;DHT22;5317;49.048;8.468;2023-07-31T01:38:24;22.20;64.20
10538;DHT22;5317;49.048;8.468;2023-07-31T01:40:51;22.10;63.80
10538;DHT22;5317;49.048;8.468;2023-07-31T01:43:20;22.20;64.10
10538;DHT22;5317;49.048;8.468;2023-07-31T01:45:47;22.00;64.20
10538;DHT22;5317;49.048;8.468;2023-07-31T01:48:13;22.10;64.30
10538;DHT22;5317;49.048;8.468;2023-07-31T01:50:40;22.10;64.40
10538;DHT22;5317;49.048;8.468;2023-07-31T01:53:07;22.00;64.30
10538;DHT22;5317;49.048;8.468;2023-07-31T01:55:34;22.00;64.30
10538;DHT22;5317;49.048;8.468;2023-07-31T01:58:01;22.00;64.30
10538;DHT22;5317;49.048;8.468;2023-07-31T02:00:29;22.00;64.30
10538;DHT22;5317;49.048;8.468;2023-07-31T02:02:56;22.00;64.20
10538;DHT22;5317;49.048;8.468;2023-07-31T02:05:22;22.00;64.20
10538;DHT22;5317;49.048;8.468;2023-07-31T02:07:49;22.00;64.20
10538;DHT22;5317;49.048;8.468;2023-07-31T02:10:16;22.00;63.90
10538;DHT22;5317;49.048;8.468;2023-07-31T02:12:43;22.00;64.90
10538;DHT22;5317;49.048;8.468;2023-07-31T02:15:10;21.90;64.10
10538;DHT22;5317;49.048;8.468;2023-07-31T02:17:38;22.00;64.20
10538;DHT22;5317;49.048;8.468;2023-07-31T02:20:06;21.90;64.90
10538;DHT22;5317;49.048;8.468;2023-07-31T02:22:33;21.90;64.20
10538;DHT22;5317;49.048;8.468;2023-07-31T02:25:00;21.90;64.10
10538;DHT22;5317;49.048;8.468;2023-07-31T02:27:26;21.80;64.10
10538;DHT22;5317;49.048;8.468;2023-07-31T02:29:53;21.80;64.10
10538;DHT22;5317;49.048;8.468;2023-07-31T02:32:20;21.90;64.20
10538;DHT22;5317;49.048;8.468;2023-07-31T02:34:49;21.90;64.20
10538;DHT22;5317;49.048;8.468;2023-07-31T02:37:15;21.90;64.20
10538;DHT22;5317;49.048;8.468;2023-07-31T02:39:42;21.80;64.10
10538;DHT22;5317;49.048;8.468;2023-07-31T02:42:09;21.80;64.00
10538;DHT22;5317;49.048;8.468;2023-07-31T02:44:36;21.70;63.90
10538;DHT22;5317;49.048;8.468;2023-07-31T02:47:03;21.60;63.80
10538;DHT22;5317;49.048;8.468;2023-07-31T02:49:30;21.60;63.80
10538;DHT22;5317;49.048;8.468;2023-07-31T02:51:58;21.60;63.80
10538;DHT22;5317;49.048;8.468;2023-07-31T02:54:25;21.60;64.10
10538;DHT22;5317;49.048;8.468;2023-07-31T02:56:52;21.50;64.20
10538;DHT22;5317;49.048;8.468;2023-07-31T02:59:19;21.50;64.30
10538;DHT22;5317;49.048;8.468;2023-07-31T03:01:46;21.50;64.40
10538;DHT22;5317;49.048;8.468;2023-07-31T03:04:13;21.50;64.30
10538;DHT22;5317;49.048;8.468;2023-07-31T03:06:40;21.50;64.30
10538;DHT22;5317;49.048;8.468;2023-07-31T03:09:11;21.50;64.30
10538;DHT22;5317;49.048;8.468;2023-07-31T03:11:38;21.50;64.10
10538;DHT22;5317;49.048;8.468;2023-07-31T03:14:05;21.40;64.20
10538;DHT22;5317;49.048;8.468;2023-07-31T03:16:31;21.40;64.30
10538;DHT22;5317;49.048;8.468;2023-07-31T03:18:58;21.40;64.30
10538;DHT22;5317;49.048;8.468;2023-07-31T03:21:25;21.40;64.30
10538;DHT22;5317;49.048;8.468;2023-07-31T03:23:52;21.50;64.30
10538;DHT22;5317;49.048;8.468;2023-07-31T03:26:20;21.50;65.00
10538;DHT22;5317;49.048;8.468;2023-07-31T03:28:47;21.60;63.80
10538;DHT22;5317;49.048;8.468;2023-07-31T03:31:15;21.60;63.80
10538;DHT22;5317;49.048;8.468;2023-07-31T03:33:41;21.60;63.80
10538;DHT22;5317;49.048;8.468;2023-07-31T03:36:08;21.60;63.80
10538;DHT22;5317;49.048;8.468;2023-07-31T03:38:35;21.60;63.50
10538;DHT22;5317;49.048;8.468;2023-07-31T03:41:02;21.60;63.70
10538;DHT22;5317;49.048;8.468;2023-07-31T03:43:30;21.60;63.50
10538;DHT22;5317;49.048;8.468;2023-07-31T03:45:58;21.60;63.40
10538;DHT22;5317;49.048;8.468;2023-07-31T03:48:25;21.60;63.50
10538;DHT22;5317;49.048;8.468;2023-07-31T03:50:52;21.50;63.50
10538;DHT22;5317;49.048;8.468;2023-07-31T03:53:19;21.50;64.50
10538;DHT22;5317;49.048;8.468;2023-07-31T03:55:45;21.50;63.70
10538;DHT22;5317;49.048;8.468;2023-07-31T03:58:12;21.60;63.80
10538;DHT22;5317;49.048;8.468;2023-07-31T04:00:41;21.60;63.80
10538;DHT22;5317;49.048;8.468;2023-07-31T04:03:08;21.60;63.80
10538;DHT22;5317;49.048;8.468;2023-07-31T04:05:38;21.60;63.80
10538;DHT22;5317;49.048;8.468;2023-07-31T04:08:05;21.50;64.50
10538;DHT22;5317;49.048;8.468;2023-07-31T04:10:32;21.50;63.70
10538;DHT22;5317;49.048;8.468;2023-07-31T04:12:59;21.50;64.10
10538;DHT22;5317;49.048;8.468;2023-07-31T04:15:26;21.50;64.20
10538;DHT22;5317;49.048;8.468;2023-07-31T04:17:54;21.60;64.90
10538;DHT22;5317;49.048;8.468;2023-07-31T04:20:21;21.60;64.10
10538;DHT22;5317;49.048;8.468;2023-07-31T04:22:48;21.60;64.20
10538;DHT22;5317;49.048;8.468;2023-07-31T04:25:15;21.50;64.20
10538;DHT22;5317;49.048;8.468;2023-07-31T04:27:42;21.50;65.10
10538;DHT22;5317;49.048;8.468;2023-07-31T04:30:09;21.50;64.40
10538;DHT22;5317;49.048;8.468;2023-07-31T04:32:36;21.50;64.50
10538;DHT22;5317;49.048;8.468;2023-07-31T04:35:05;21.50;65.20
10538;DHT22;5317;49.048;8.468;2023-07-31T04:37:32;21.60;64.50
10538;DHT22;5317;49.048;8.468;2023-07-31T04:39:59;21.60;64.50
10538;DHT22;5317;49.048;8.468;2023-07-31T04:42:26;21.60;64.60
10538;DHT22;5317;49.048;8.468;2023-07-31T04:44:52;21.60;64.80
10538;DHT22;5317;49.048;8.468;2023-07-31T04:47:19;21.60;64.70
10538;DHT22;5317;49.048;8.468;2023-07-31T04:49:46;21.60;64.90
10538;DHT22;5317;49.048;8.468;2023-07-31T04:52:14;21.60;64.90
10538;DHT22;5317;49.048;8.468;2023-07-31T04:54:41;21.60;65.00
10538;DHT22;5317;49.048;8.468;2023-07-31T04:57:08;21.60;65.00
10538;DHT22;5317;49.048;8.468;2023-07-31T04:59:35;21.60;65.00
10538;DHT22;5317;49.048;8.468;2023-07-31T05:02:02;21.60;64.80
10538;DHT22;5317;49.048;8.468;2023-07-31T05:04:29;21.60;64.80
10538;DHT22;5317;49.048;8.468;2023-07-31T05:06:56;21.60;64.80
10538;DHT22;5317;49.048;8.468;2023-07-31T05:09:24;21.60;65.10
10538;DHT22;5317;49.048;8.468;2023-07-31T05:11:51;21.50;64.90
10538;DHT22;5317;49.048;8.468;2023-07-31T05:14:18;21.60;65.20
10538;DHT22;5317;49.048;8.468;2023-07-31T05:16:45;21.70;65.20
10538;DHT22;5317;49.048;8.468;2023-07-31T05:19:12;21.70;65.10
10538;DHT22;5317;49.048;8.468;2023-07-31T05:21:39;21.70;64.80
10538;DHT22;5317;49.048;8.468;2023-07-31T05:24:07;21.70;64.80
10538;DHT22;5317;49.048;8.468;2023-07-31T05:26:36;21.70;65.00
10538;DHT22;5317;49.048;8.468;2023-07-31T05:29:03;21.70;65.10
10538;DHT22;5317;49.048;8.468;2023-07-31T05:31:30;21.80;65.20
10538;DHT22;5317;49.048;8.468;2023-07-31T05:33:57;21.80;64.70
10538;DHT22;5317;49.048;8.468;2023-07-31T05:36:24;21.80;64.70
10538;DHT22;5317;49.048;8.468;2023-07-31T05:38:51;21.90;65.00
10538;DHT22;5317;49.048;8.468;2023-07-31T05:41:18;22.00;64.70
10538;DHT22;5317;49.048;8.468;2023-07-31T05:43:46;22.00;65.00
10538;DHT22;5317;49.048;8.468;2023-07-31T05:46:13;22.10;64.80
10538;DHT22;5317;49.048;8.468;2023-07-31T05:48:45;22.10;64.40
10538;DHT22;5317;49.048;8.468;2023-07-31T05:51:12;22.20;64.50
10538;DHT22;5317;49.048;8.468;2023-07-31T05:53:39;22.20;64.50
10538;DHT22;5317;49.048;8.468;2023-07-31T05:56:06;22.30;65.40
10538;DHT22;5317;49.048;8.468;2023-07-31T05:58:33;22.30;64.30
10538;DHT22;5317;49.048;8.468;2023-07-31T06:01:01;22.30;64.40
10538;DHT22;5317;49.048;8.468;2023-07-31T06:03:28;22.30;64.60
10538;DHT22;5317;49.048;8.468;2023-07-31T06:05:56;22.30;64.40
10538;DHT22;5317;49.048;8.468;2023-07-31T06:08:22;22.30;64.60
10538;DHT22;5317;49.048;8.468;2023-07-31T06:10:49;22.30;64.50
10538;DHT22;5317;49.048;8.468;2023-07-31T06:13:16;22.40;64.30
10538;DHT22;5317;49.048;8.468;2023-07-31T06:15:43;22.40;64.60
10538;DHT22;5317;49.048;8.468;2023-07-31T06:18:11;22.40;64.00
10538;DHT22;5317;49.048;8.468;2023-07-31T06:20:38;22.40;64.20
10538;DHT22;5317;49.048;8.468;2023-07-31T06:23:06;22.40;63.90
10538;DHT22;5317;49.048;8.468;2023-07-31T06:25:32;22.50;63.90
10538;DHT22;5317;49.048;8.468;2023-07-31T06:27:59;22.50;63.90
10538;DHT22;5317;49.048;8.468;2023-07-31T06:30:27;22.50;63.20
10538;DHT22;5317;49.048;8.468;2023-07-31T06:32:53;22.70;63.70
10538;DHT22;5317;49.048;8.468;2023-07-31T06:35:22;22.70;63.20
10538;DHT22;5317;49.048;8.468;2023-07-31T06:37:49;22.80;63.10
10538;DHT22;5317;49.048;8.468;2023-07-31T06:40:16;22.90;63.20
10538;DHT22;5317;49.048;8.468;2023-07-31T06:42:43;23.00;62.80
10538;DHT22;5317;49.048;8.468;2023-07-31T06:45:10;23.00;62.30
10538;DHT22;5317;49.048;8.468;2023-07-31T06:47:37;23.10;62.50
10538;DHT22;5317;49.048;8.468;2023-07-31T06:50:05;23.10;62.00
10538;DHT22;5317;49.048;8.468;2023-07-31T06:52:33;23.10;62.10
10538;DHT22;5317;49.048;8.468;2023-07-31T06:55:03;23.10;62.10
10538;DHT22;5317;49.048;8.468;2023-07-31T06:57:31;23.10;62.30
10538;DHT22;5317;49.048;8.468;2023-07-31T06:59:58;23.10;62.00
10538;DHT22;5317;49.048;8.468;2023-07-31T07:02:25;23.10;62.30
10538;DHT22;5317;49.048;8.468;2023-07-31T07:04:52;23.10;62.30
10538;DHT22;5317;49.048;8.468;2023-07-31T07:07:19;23.10;62.00
10538;DHT22;5317;49.048;8.468;2023-07-31T07:09:47;23.00;62.10
10538;DHT22;5317;49.048;8.468;2023-07-31T07:12:14;23.10;62.50
10538;DHT22;5317;49.048;8.468;2023-07-31T07:14:41;23.10;62.40
10538;DHT22;5317;49.048;8.468;2023-07-31T07:17:07;23.10;62.50
10538;DHT22;5317;49.048;8.468;2023-07-31T07:19:34;23.10;61.80
10538;DHT22;5317;49.048;8.468;2023-07-31T07:22:01;23.10;62.20
10538;DHT22;5317;49.048;8.468;2023-07-31T07:24:28;23.20;62.40
10538;DHT22;5317;49.048;8.468;2023-07-31T07:26:56;23.30;62.40
10538;DHT22;5317;49.048;8.468;2023-07-31T07:29:23;23.40;62.20
10538;DHT22;5317;49.048;8.468;2023-07-31T07:31:50;23.40;61.90
10538;DHT22;5317;49.048;8.468;2023-07-31T07:34:17;23.50;62.10
10538;DHT22;5317;49.048;8.468;2023-07-31T07:36:44;23.50;62.30
10538;DHT22;5317;49.048;8.468;2023-07-31T07:39:12;23.50;61.00
10538;DHT22;5317;49.048;8.468;2023-07-31T07:41:39;23.50;60.80
10538;DHT22;5317;49.048;8.468;2023-07-31T07:44:07;23.50;60.90
10538;DHT22;5317;49.048;8.468;2023-07-31T07:46:34;23.50;61.10
10538;DHT22;5317;49.048;8.468;2023-07-31T07:49:01;23.50;60.80
10538;DHT22;5317;49.048;8.468;2023-07-31T07:51:28;23.50;60.40
10538;DHT22;5317;49.048;8.468;2023-07-31T07:53:57;23.50;60.40
10538;DHT22;5317;49.048;8.468;2023-07-31T07:56:24;23.50;60.10
10538;DHT22;5317;49.048;8.468;2023-07-31T07:58:52;23.60;60.50
10538;DHT22;5317;49.048;8.468;2023-07-31T08:01:20;23.60;60.20
10538;DHT22;5317;49.048;8.468;2023-07-31T08:03:47;23.70;60.10
10538;DHT22;5317;49.048;8.468;2023-07-31T08:06:14;23.70;60.10
10538;DHT22;5317;49.048;8.468;2023-07-31T08:08:41;23.80;60.50
10538;DHT22;5317;49.048;8.468;2023-07-31T08:11:08;23.80;60.00
10538;DHT22;5317;49.048;8.468;2023-07-31T08:13:35;23.80;59.70
10538;DHT22;5317;49.048;8.468;2023-07-31T08:16:02;23.80;59.90
10538;DHT22;5317;49.048;8.468;2023-07-31T08:18:31;23.80;59.60
10538;DHT22;5317;49.048;8.468;2023-07-31T08:20:58;23.70;59.40
10538;DHT22;5317;49.048;8.468;2023-07-31T08:23:25;23.80;59.40
10538;DHT22;5317;49.048;8.468;2023-07-31T08:25:52;23.80;59.60
10538;DHT22;5317;49.048;8.468;2023-07-31T08:28:18;23.90;59.30
10538;DHT22;5317;49.048;8.468;2023-07-31T08:30:45;24.00;59.50
10538;DHT22;5317;49.048;8.468;2023-07-31T08:33:12;24.10;59.40
10538;DHT22;5317;49.048;8.468;2023-07-31T08:35:40;24.10;59.70
10538;DHT22;5317;49.048;8.468;2023-07-31T08:38:07;24.20;59.20
10538;DHT22;5317;49.048;8.468;2023-07-31T08:40:36;24.30;59.10
10538;DHT22;5317;49.048;8.468;2023-07-31T08:43:04;24.30;58.80
10538;DHT22;5317;49.048;8.468;2023-07-31T08:45:31;24.40;59.00
10538;DHT22;5317;49.048;8.468;2023-07-31T08:47:59;24.40;58.90
10538;DHT22;5317;49.048;8.468;2023-07-31T08:50:26;24.50;59.10
10538;DHT22;5317;49.048;8.468;2023-07-31T08:52:54;24.60;59.20
10538;DHT22;5317;49.048;8.468;2023-07-31T08:55:21;24.70;58.20
10538;DHT22;5317;49.048;8.468;2023-07-31T08:57:51;24.70;58.50
10538;DHT22;5317;49.048;8.468;2023-07-31T09:00:20;24.70;59.30
10538;DHT22;5317;49.048;8.468;2023-07-31T09:02:54;24.80;58.20
10538;DHT22;5317;49.048;8.468;2023-07-31T09:05:23;25.00;58.80
10538;DHT22;5317;49.048;8.468;2023-07-31T09:07:50;25.20;58.70
10538;DHT22;5317;49.048;8.468;2023-07-31T09:10:19;25.30;57.90
10538;DHT22;5317;49.048;8.468;2023-07-31T09:12:46;25.30;57.00
10538;DHT22;5317;49.048;8.468;2023-07-31T09:15:14;25.30;57.60
10538;DHT22;5317;49.048;8.468;2023-07-31T09:17:41;25.30;57.20
10538;DHT22;5317;49.048;8.468;2023-07-31T09:20:14;25.30;57.40
10538;DHT22;5317;49.048;8.468;2023-07-31T09:22:42;25.40;56.00
10538;DHT22;5317;49.048;8.468;2023-07-31T09:25:16;25.50;56.40
10538;DHT22;5317;49.048;8.468;2023-07-31T09:27:48;25.60;55.80
10538;DHT22;5317;49.048;8.468;2023-07-31T09:30:15;25.70;56.00
10538;DHT22;5317;49.048;8.468;2023-07-31T09:32:43;25.70;56.10
10538;DHT22;5317;49.048;8.468;2023-07-31T09:35:18;25.90;55.90
10538;DHT22;5317;49.048;8.468;2023-07-31T09:37:49;26.00;55.80
10538;DHT22;5317;49.048;8.468;2023-07-31T09:40:25;26.10;56.40
10538;DHT22;5317;49.048;8.468;2023-07-31T09:42:55;26.00;55.20
10538;DHT22;5317;49.048;8.468;2023-07-31T09:45:23;26.00;55.00
10538;DHT22;5317;49.048;8.468;2023-07-31T09:47:51;26.00;55.60
10538;DHT22;5317;49.048;8.468;2023-07-31T09:50:20;26.10;55.20
10538;DHT22;5317;49.048;8.468;2023-07-31T09:52:47;26.10;55.30
10538;DHT22;5317;49.048;8.468;2023-07-31T09:55:14;26.30;55.80
10538;DHT22;5317;49.048;8.468;2023-07-31T09:57:42;26.40;55.20
10538;DHT22;5317;49.048;8.468;2023-07-31T10:00:12;26.50;54.60
10538;DHT22;5317;49.048;8.468;2023-07-31T10:02:39;26.40;55.00
10538;DHT22;5317;49.048;8.468;2023-07-31T10:05:07;26.30;54.70
10538;DHT22;5317;49.048;8.468;2023-07-31T10:07:36;26.30;55.20
10538;DHT22;5317;49.048;8.468;2023-07-31T10:10:04;26.20;54.50
10538;DHT22;5317;49.048;8.468;2023-07-31T10:12:33;26.10;54.90
10538;DHT22;5317;49.048;8.468;2023-07-31T10:15:01;26.20;55.00
10538;DHT22;5317;49.048;8.468;2023-07-31T10:17:30;26.20;54.50
10538;DHT22;5317;49.048;8.468;2023-07-31T10:19:58;26.10;54.70
10538;DHT22;5317;49.048;8.468;2023-07-31T10:22:26;26.20;54.30
10538;DHT22;5317;49.048;8.468;2023-07-31T10:24:55;26.00;54.00
10538;DHT22;5317;49.048;8.468;2023-07-31T10:27:24;25.90;54.20
10538;DHT22;5317;49.048;8.468;2023-07-31T10:29:52;25.90;54.80
10538;DHT22;5317;49.048;8.468;2023-07-31T10:32:20;26.10;55.10
10538;DHT22;5317;49.048;8.468;2023-07-31T10:34:49;26.10;54.70
10538;DHT22;5317;49.048;8.468;2023-07-31T10:37:21;26.20;54.80
10538;DHT22;5317;49.048;8.468;2023-07-31T10:39:59;26.10;54.30
10538;DHT22;5317;49.048;8.468;2023-07-31T10:42:31;26.00;53.80
10538;DHT22;5317;49.048;8.468;2023-07-31T10:45:00;26.00;54.40
10538;DHT22;5317;49.048;8.468;2023-07-31T10:47:27;26.10;54.60
10538;DHT22;5317;49.048;8.468;2023-07-31T10:50:20;26.10;54.80
10538;DHT22;5317;49.048;8.468;2023-07-31T10:52:47;26.20;54.30
10538;DHT22;5317;49.048;8.468;2023-07-31T10:55:24;26.20;54.80
10538;DHT22;5317;49.048;8.468;2023-07-31T10:57:51;26.30;54.20
10538;DHT22;5317;49.048;8.468;2023-07-31T11:00:19;26.30;54.80
10538;DHT22;5317;49.048;8.468;2023-07-31T11:02:56;26.40;54.90
10538;DHT22;5317;49.048;8.468;2023-07-31T11:05:41;26.50;54.60
10538;DHT22;5317;49.048;8.468;2023-07-31T11:08:16;26.40;54.00
10538;DHT22;5317;49.048;8.468;2023-07-31T11:10:45;26.50;54.40
10538;DHT22;5317;49.048;8.468;2023-07-31T11:13:12;26.70;54.20
10538;DHT22;5317;49.048;8.468;2023-07-31T11:15:39;26.80;53.70
10538;DHT22;5317;49.048;8.468;2023-07-31T11:18:06;26.90;53.80
10538;DHT22;5317;49.048;8.468;2023-07-31T11:20:36;27.10;53.50
10538;DHT22;5317;49.048;8.468;2023-07-31T11:23:05;27.20;52.60
10538;DHT22;5317;49.048;8.468;2023-07-31T11:25:33;27.40;53.60
10538;DHT22;5317;49.048;8.468;2023-07-31T11:28:03;27.50;53.30
10538;DHT22;5317;49.048;8.468;2023-07-31T11:30:30;27.50;51.80
10538;DHT22;5317;49.048;8.468;2023-07-31T11:32:57;27.50;52.90
10538;DHT22;5317;49.048;8.468;2023-07-31T11:35:24;27.50;52.80
10538;DHT22;5317;49.048;8.468;2023-07-31T11:37:52;27.50;52.60
10538;DHT22;5317;49.048;8.468;2023-07-31T11:40:19;27.50;52.60
10538;DHT22;5317;49.048;8.468;2023-07-31T11:42:46;27.40;52.10
10538;DHT22;5317;49.048;8.468;2023-07-31T11:45:13;27.30;52.60
10538;DHT22;5317;49.048;8.468;2023-07-31T11:47:40;27.50;52.80
10538;DHT22;5317;49.048;8.468;2023-07-31T11:50:10;27.40;52.80
10538;DHT22;5317;49.048;8.468;2023-07-31T11:52:41;27.30;52.50
10538;DHT22;5317;49.048;8.468;2023-07-31T11:55:10;27.30;52.40
10538;DHT22;5317;49.048;8.468;2023-07-31T11:57:39;27.30;52.90
10538;DHT22;5317;49.048;8.468;2023-07-31T12:00:09;27.40;52.90
10538;DHT22;5317;49.048;8.468;2023-07-31T12:02:38;27.60;52.90
10538;DHT22;5317;49.048;8.468;2023-07-31T12:05:09;27.80;53.00
10538;DHT22;5317;49.048;8.468;2023-07-31T12:07:47;27.70;52.20
10538;DHT22;5317;49.048;8.468;2023-07-31T12:10:26;27.70;52.30
10538;DHT22;5317;49.048;8.468;2023-07-31T12:13:01;27.70;52.70
10538;DHT22;5317;49.048;8.468;2023-07-31T12:15:35;27.80;52.50
10538;DHT22;5317;49.048;8.468;2023-07-31T12:18:04;27.70;51.90
10538;DHT22;5317;49.048;8.468;2023-07-31T12:20:32;28.00;52.40
10538;DHT22;5317;49.048;8.468;2023-07-31T12:23:00;28.00;52.20
10538;DHT22;5317;49.048;8.468;2023-07-31T12:25:32;28.00;51.10
10538;DHT22;5317;49.048;8.468;2023-07-31T12:28:04;27.80;51.50
10538;DHT22;5317;49.048;8.468;2023-07-31T12:30:33;27.80;52.00
10538;DHT22;5317;49.048;8.468;2023-07-31T12:33:03;27.90;51.80
10538;DHT22;5317;49.048;8.468;2023-07-31T12:35:35;28.00;52.00
10538;DHT22;5317;49.048;8.468;2023-07-31T12:38:03;28.00;51.80
10538;DHT22;5317;49.048;8.468;2023-07-31T12:40:29;28.10;51.40
10538;DHT22;5317;49.048;8.468;2023-07-31T12:43:00;28.20;51.10
10538;DHT22;5317;49.048;8.468;2023-07-31T12:45:27;28.20;50.80
10538;DHT22;5317;49.048;8.468;2023-07-31T12:47:54;28.20;51.40
10538;DHT22;5317;49.048;8.468;2023-07-31T12:50:21;28.20;51.20
10538;DHT22;5317;49.048;8.468;2023-07-31T12:52:49;28.20;51.20
10538;DHT22;5317;49.048;8.468;2023-07-31T12:55:15;28.10;51.50
10538;DHT22;5317;49.048;8.468;2023-07-31T12:57:43;27.90;51.60
10538;DHT22;5317;49.048;8.468;2023-07-31T13:00:13;27.80;51.90
10538;DHT22;5317;49.048;8.468;2023-07-31T13:02:40;27.70;51.90
10538;DHT22;5317;49.048;8.468;2023-07-31T13:05:07;27.80;52.10
10538;DHT22;5317;49.048;8.468;2023-07-31T13:07:34;27.90;52.10
10538;DHT22;5317;49.048;8.468;2023-07-31T13:10:01;27.80;51.80
10538;DHT22;5317;49.048;8.468;2023-07-31T13:12:28;27.80;52.20
10538;DHT22;5317;49.048;8.468;2023-07-31T13:14:55;27.80;52.50
10538;DHT22;5317;49.048;8.468;2023-07-31T13:17:23;27.90;52.60
10538;DHT22;5317;49.048;8.468;2023-07-31T13:19:49;28.00;52.80
10538;DHT22;5317;49.048;8.468;2023-07-31T13:22:16;28.00;52.70
10538;DHT22;5317;49.048;8.468;2023-07-31T13:24:43;27.90;53.00
10538;DHT22;5317;49.048;8.468;2023-07-31T13:27:10;27.90;52.40
10538;DHT22;5317;49.048;8.468;2023-07-31T13:29:37;27.80;52.70
10538;DHT22;5317;49.048;8.468;2023-07-31T13:32:04;27.70;52.30
10538;DHT22;5317;49.048;8.468;2023-07-31T13:34:32;27.60;52.70
10538;DHT22;5317;49.048;8.468;2023-07-31T13:36:59;27.60;52.70
10538;DHT22;5317;49.048;8.468;2023-07-31T13:39:26;27.50;52.90
10538;DHT22;5317;49.048;8.468;2023-07-31T13:41:53;27.50;53.40
10538;DHT22;5317;49.048;8.468;2023-07-31T13:44:20;27.50;53.50
10538;DHT22;5317;49.048;8.468;2023-07-31T13:46:47;27.50;53.40
10538;DHT22;5317;49.048;8.468;2023-07-31T13:49:14;27.40;53.00
10538;DHT22;5317;49.048;8.468;2023-07-31T13:51:42;27.10;53.50
10538;DHT22;5317;49.048;8.468;2023-07-31T13:54:09;27.20;54.50
10538;DHT22;5317;49.048;8.468;2023-07-31T13:56:37;27.30;54.10
10538;DHT22;5317;49.048;8.468;2023-07-31T13:59:04;27.40;53.70
10538;DHT22;5317;49.048;8.468;2023-07-31T14:01:32;27.40;53.80
10538;DHT22;5317;49.048;8.468;2023-07-31T14:03:59;27.50;53.60
10538;DHT22;5317;49.048;8.468;2023-07-31T14:06:26;27.60;53.40
10538;DHT22;5317;49.048;8.468;2023-07-31T14:08:54;27.50;53.30
10538;DHT22;5317;49.048;8.468;2023-07-31T14:11:22;27.40;53.50
10538;DHT22;5317;49.048;8.468;2023-07-31T14:13:50;27.30;53.50
10538;DHT22;5317;49.048;8.468;2023-07-31T14:16:17;27.40;53.90
10538;DHT22;5317;49.048;8.468;2023-07-31T14:18:44;27.40;53.60
10538;DHT22;5317;49.048;8.468;2023-07-31T14:21:11;27.30;53.60
10538;DHT22;5317;49.048;8.468;2023-07-31T14:23:39;27.10;54.10
10538;DHT22;5317;49.048;8.468;2023-07-31T14:26:07;27.00;54.30
10538;DHT22;5317;49.048;8.468;2023-07-31T14:28:34;27.00;54.40
10538;DHT22;5317;49.048;8.468;2023-07-31T14:31:01;26.90;54.30
10538;DHT22;5317;49.048;8.468;2023-07-31T14:33:27;26.90;54.50
10538;DHT22;5317;49.048;8.468;2023-07-31T14:35:54;26.90;54.80
10538;DHT22;5317;49.048;8.468;2023-07-31T14:38:21;26.90;55.10
10538;DHT22;5317;49.048;8.468;2023-07-31T14:40:48;26.90;55.10
10538;DHT22;5317;49.048;8.468;2023-07-31T14:43:16;26.90;54.80
10538;DHT22;5317;49.048;8.468;2023-07-31T14:45:43;26.90;54.60
10538;DHT22;5317;49.048;8.468;2023-07-31T14:48:11;26.90;54.60
10538;DHT22;5317;49.048;8.468;2023-07-31T14:50:38;26.90;54.30
10538;DHT22;5317;49.048;8.468;2023-07-31T14:53:05;26.90;54.60
10538;DHT22;5317;49.048;8.468;2023-07-31T14:55:32;26.90;55.00
10538;DHT22;5317;49.048;8.468;2023-07-31T14:57:59;27.00;55.00
10538;DHT22;5317;49.048;8.468;2023-07-31T15:00:27;27.10;55.00
10538;DHT22;5317;49.048;8.468;2023-07-31T15:02:54;27.20;54.50
10538;DHT22;5317;49.048;8.468;2023-07-31T15:05:20;27.30;54.60
10538;DHT22;5317;49.048;8.468;2023-07-31T15:07:48;27.50;54.90
10538;DHT22;5317;49.048;8.468;2023-07-31T15:10:15;27.50;54.30
10538;DHT22;5317;49.048;8.468;2023-07-31T15:12:42;27.70;54.70
10538;DHT22;5317;49.048;8.468;2023-07-31T15:15:09;27.80;54.60
10538;DHT22;5317;49.048;8.468;2023-07-31T15:17:37;27.90;54.20
10538;DHT22;5317;49.048;8.468;2023-07-31T15:20:05;27.90;54.10
10538;DHT22;5317;49.048;8.468;2023-07-31T15:22:32;28.00;54.00
10538;DHT22;5317;49.048;8.468;2023-07-31T15:24:59;27.90;53.40
10538;DHT22;5317;49.048;8.468;2023-07-31T15:27:26;28.00;53.50
10538;DHT22;5317;49.048;8.468;2023-07-31T15:29:53;27.90;53.60
10538;DHT22;5317;49.048;8.468;2023-07-31T15:32:21;28.00;53.50
10538;DHT22;5317;49.048;8.468;2023-07-31T15:34:50;28.00;54.10
10538;DHT22;5317;49.048;8.468;2023-07-31T15:37:17;28.10;53.90
10538;DHT22;5317;49.048;8.468;2023-07-31T15:39:44;28.10;53.60
10538;DHT22;5317;49.048;8.468;2023-07-31T15:42:11;28.10;53.80
10538;DHT22;5317;49.048;8.468;2023-07-31T15:44:38;28.00;53.90
10538;DHT22;5317;49.048;8.468;2023-07-31T15:47:05;28.00;54.20
10538;DHT22;5317;49.048;8.468;2023-07-31T15:49:32;27.90;54.60